الصفحة الرئيسية
METAR-TAF:

METAR-TAF

مطار :

بولدر, كولورادو, الولايات المتحدة

دائرة عرض: 40-02-22N, خط طول: 105-13-33W, ارتفاع: 1612 متر

مراقبة الطقس الحالي

تاريخ ووقت الإصدار 32 دقيقة قبل الساعة 07:54UTC
ريح 3 عقدة من الغرب/الشمال الغربي
درجة الحرارة -6°درجة مئوية
الرطوبة 49%
ضغط 1006 hPa
الرؤية: 16.1 كم
سماء صافية

METAR: KBDU 210754Z AUTO 30003KT 10SM CLR M06/M15 A2972 RMK AO2

زمن: 01:26 (08:26 UTC)


TAF: مفقودة

أرصاد الطقس والتوقعات من أكثر من 4000 مطار (تقارير الطقس للمطار METAR والتنبؤ بالطقس بالمطارTAF).

المحطات المتاحة هي النقط الصفراء والحمراء على الخريطة.

حرك المؤشر فوق النقطة لمعرفة اسم المحطة.

ثم انقر لمعرفة أرصاد وتوقعات الطقس.

لتغيير الخارطة: اضغط على الأزرار الخضراء مع رمز الصليب الأسود للتكبير. على الزر الأخضر مع شرطة للتصغير، أو على الأسهم الخضراء للخرائط المجاورة.


METAR-TAF: